sensor_id;sensor_type;location;lat;lon;timestamp;P1;durP1;ratioP1;P2;durP2;ratioP2
34497;SDS011;20744;50.938;7.286;2023-04-19T00:02:25;7.93;;;5.22;;
34497;SDS011;20744;50.938;7.286;2023-04-19T00:04:52;7.47;;;5.05;;
34497;SDS011;20744;50.938;7.286;2023-04-19T00:07:20;8.27;;;5.13;;
34497;SDS011;20744;50.938;7.286;2023-04-19T00:09:48;8.20;;;4.90;;
34497;SDS011;20744;50.938;7.286;2023-04-19T00:12:16;7.97;;;5.10;;
34497;SDS011;20744;50.938;7.286;2023-04-19T00:14:43;9.90;;;5.30;;
34497;SDS011;20744;50.938;7.286;2023-04-19T00:17:11;7.97;;;4.50;;
34497;SDS011;20744;50.938;7.286;2023-04-19T00:19:38;8.70;;;5.10;;
34497;SDS011;20744;50.938;7.286;2023-04-19T00:22:06;8.23;;;4.82;;
34497;SDS011;20744;50.938;7.286;2023-04-19T00:24:33;6.45;;;4.85;;
34497;SDS011;20744;50.938;7.286;2023-04-19T00:27:00;6.78;;;5.03;;
34497;SDS011;20744;50.938;7.286;2023-04-19T00:29:29;6.07;;;4.55;;
34497;SDS011;20744;50.938;7.286;2023-04-19T00:31:56;7.00;;;4.85;;
34497;SDS011;20744;50.938;7.286;2023-04-19T00:34:23;7.65;;;4.95;;
34497;SDS011;20744;50.938;7.286;2023-04-19T00:36:50;8.15;;;5.32;;
34497;SDS011;20744;50.938;7.286;2023-04-19T00:39:18;6.60;;;5.25;;
34497;SDS011;20744;50.938;7.286;2023-04-19T00:41:45;10.80;;;4.75;;
34497;SDS011;20744;50.938;7.286;2023-04-19T00:44:12;8.20;;;4.40;;
34497;SDS011;20744;50.938;7.286;2023-04-19T00:46:41;6.90;;;4.68;;
34497;SDS011;20744;50.938;7.286;2023-04-19T00:49:08;6.63;;;4.82;;
34497;SDS011;20744;50.938;7.286;2023-04-19T00:51:36;6.85;;;4.93;;
34497;SDS011;20744;50.938;7.286;2023-04-19T00:54:03;7.18;;;4.68;;
34497;SDS011;20744;50.938;7.286;2023-04-19T00:56:31;7.90;;;4.88;;
34497;SDS011;20744;50.938;7.286;2023-04-19T00:58:59;7.43;;;4.65;;
34497;SDS011;20744;50.938;7.286;2023-04-19T01:01:26;7.03;;;4.30;;
34497;SDS011;20744;50.938;7.286;2023-04-19T01:03:55;7.10;;;4.63;;
34497;SDS011;20744;50.938;7.286;2023-04-19T01:06:22;6.50;;;4.68;;
34497;SDS011;20744;50.938;7.286;2023-04-19T01:08:51;9.95;;;5.40;;
34497;SDS011;20744;50.938;7.286;2023-04-19T01:11:19;8.60;;;5.32;;
34497;SDS011;20744;50.938;7.286;2023-04-19T01:13:46;7.15;;;4.95;;
34497;SDS011;20744;50.938;7.286;2023-04-19T01:16:13;6.25;;;4.85;;
34497;SDS011;20744;50.938;7.286;2023-04-19T01:18:40;7.63;;;4.80;;
34497;SDS011;20744;50.938;7.286;2023-04-19T01:21:09;7.15;;;5.10;;
34497;SDS011;20744;50.938;7.286;2023-04-19T01:23:38;6.90;;;5.05;;
34497;SDS011;20744;50.938;7.286;2023-04-19T01:26:05;5.80;;;4.70;;
34497;SDS011;20744;50.938;7.286;2023-04-19T01:28:32;8.65;;;5.20;;
34497;SDS011;20744;50.938;7.286;2023-04-19T01:30:59;7.90;;;4.72;;
34497;SDS011;20744;50.938;7.286;2023-04-19T01:33:27;6.45;;;4.75;;
34497;SDS011;20744;50.938;7.286;2023-04-19T01:35:54;8.00;;;5.07;;
34497;SDS011;20744;50.938;7.286;2023-04-19T01:38:21;8.57;;;5.00;;
34497;SDS011;20744;50.938;7.286;2023-04-19T01:40:50;7.95;;;5.05;;
34497;SDS011;20744;50.938;7.286;2023-04-19T01:43:17;10.38;;;5.22;;
34497;SDS011;20744;50.938;7.286;2023-04-19T01:45:44;6.30;;;5.10;;
34497;SDS011;20744;50.938;7.286;2023-04-19T01:48:12;9.40;;;5.15;;
34497;SDS011;20744;50.938;7.286;2023-04-19T01:50:39;7.10;;;5.20;;
34497;SDS011;20744;50.938;7.286;2023-04-19T01:53:06;6.70;;;5.00;;
34497;SDS011;20744;50.938;7.286;2023-04-19T01:55:33;7.43;;;5.43;;
34497;SDS011;20744;50.938;7.286;2023-04-19T01:58:02;8.40;;;5.60;;
34497;SDS011;20744;50.938;7.286;2023-04-19T02:00:29;8.52;;;5.05;;
34497;SDS011;20744;50.938;7.286;2023-04-19T02:02:56;6.53;;;5.22;;
34497;SDS011;20744;50.938;7.286;2023-04-19T02:05:23;7.47;;;5.35;;
34497;SDS011;20744;50.938;7.286;2023-04-19T02:07:51;10.30;;;5.97;;
34497;SDS011;20744;50.938;7.286;2023-04-19T02:10:18;9.98;;;6.03;;
34497;SDS011;20744;50.938;7.286;2023-04-19T02:12:45;8.43;;;5.72;;
34497;SDS011;20744;50.938;7.286;2023-04-19T02:15:14;7.93;;;6.00;;
34497;SDS011;20744;50.938;7.286;2023-04-19T02:17:41;8.65;;;5.55;;
34497;SDS011;20744;50.938;7.286;2023-04-19T02:20:10;8.82;;;5.85;;
34497;SDS011;20744;50.938;7.286;2023-04-19T02:22:38;8.35;;;5.47;;
34497;SDS011;20744;50.938;7.286;2023-04-19T02:25:05;10.43;;;5.72;;
34497;SDS011;20744;50.938;7.286;2023-04-19T02:27:33;8.00;;;5.50;;
34497;SDS011;20744;50.938;7.286;2023-04-19T02:30:00;10.48;;;6.18;;
34497;SDS011;20744;50.938;7.286;2023-04-19T02:32:28;8.00;;;5.82;;
34497;SDS011;20744;50.938;7.286;2023-04-19T02:34:56;9.88;;;5.57;;
34497;SDS011;20744;50.938;7.286;2023-04-19T02:37:23;9.70;;;5.22;;
34497;SDS011;20744;50.938;7.286;2023-04-19T02:39:50;10.57;;;5.63;;
34497;SDS011;20744;50.938;7.286;2023-04-19T02:42:17;8.65;;;5.43;;
34497;SDS011;20744;50.938;7.286;2023-04-19T02:44:44;9.38;;;5.50;;
34497;SDS011;20744;50.938;7.286;2023-04-19T02:47:12;8.07;;;5.57;;
34497;SDS011;20744;50.938;7.286;2023-04-19T02:49:41;9.65;;;6.07;;
34497;SDS011;20744;50.938;7.286;2023-04-19T02:52:08;7.80;;;5.25;;
34497;SDS011;20744;50.938;7.286;2023-04-19T02:54:35;8.05;;;5.50;;
34497;SDS011;20744;50.938;7.286;2023-04-19T02:57:02;8.63;;;6.10;;
34497;SDS011;20744;50.938;7.286;2023-04-19T02:59:30;9.23;;;5.82;;
34497;SDS011;20744;50.938;7.286;2023-04-19T03:01:57;10.65;;;5.93;;
34497;SDS011;20744;50.938;7.286;2023-04-19T03:04:24;11.15;;;6.72;;
34497;SDS011;20744;50.938;7.286;2023-04-19T03:06:54;10.90;;;6.28;;
34497;SDS011;20744;50.938;7.286;2023-04-19T03:09:21;8.73;;;6.45;;
34497;SDS011;20744;50.938;7.286;2023-04-19T03:11:48;11.95;;;6.93;;
34497;SDS011;20744;50.938;7.286;2023-04-19T03:14:16;9.10;;;6.40;;
34497;SDS011;20744;50.938;7.286;2023-04-19T03:16:43;12.02;;;6.90;;
34497;SDS011;20744;50.938;7.286;2023-04-19T03:19:10;8.30;;;6.15;;
34497;SDS011;20744;50.938;7.286;2023-04-19T03:21:37;9.02;;;6.28;;
34497;SDS011;20744;50.938;7.286;2023-04-19T03:24:06;9.15;;;6.30;;
34497;SDS011;20744;50.938;7.286;2023-04-19T03:26:34;7.95;;;6.10;;
34497;SDS011;20744;50.938;7.286;2023-04-19T03:29:01;10.93;;;6.40;;
34497;SDS011;20744;50.938;7.286;2023-04-19T03:31:28;12.85;;;6.50;;
34497;SDS011;20744;50.938;7.286;2023-04-19T03:33:55;7.97;;;5.93;;
34497;SDS011;20744;50.938;7.286;2023-04-19T03:36:23;9.68;;;6.15;;
34497;SDS011;20744;50.938;7.286;2023-04-19T03:38:50;10.18;;;6.30;;
34497;SDS011;20744;50.938;7.286;2023-04-19T03:41:19;12.25;;;6.13;;
34497;SDS011;20744;50.938;7.286;2023-04-19T03:43:47;8.52;;;5.97;;
34497;SDS011;20744;50.938;7.286;2023-04-19T03:46:14;9.10;;;6.20;;
34497;SDS011;20744;50.938;7.286;2023-04-19T03:48:41;10.18;;;6.07;;
34497;SDS011;20744;50.938;7.286;2023-04-19T03:51:09;8.30;;;5.88;;
34497;SDS011;20744;50.938;7.286;2023-04-19T03:53:37;8.98;;;5.70;;
34497;SDS011;20744;50.938;7.286;2023-04-19T03:56:04;10.38;;;5.85;;
34497;SDS011;20744;50.938;7.286;2023-04-19T03:58:33;12.80;;;6.40;;
34497;SDS011;20744;50.938;7.286;2023-04-19T04:01:01;9.73;;;6.53;;
34497;SDS011;20744;50.938;7.286;2023-04-19T04:03:29;9.18;;;7.03;;
34497;SDS011;20744;50.938;7.286;2023-04-19T04:05:56;11.38;;;6.97;;
34497;SDS011;20744;50.938;7.286;2023-04-19T04:08:24;13.02;;;7.65;;
34497;SDS011;20744;50.938;7.286;2023-04-19T04:10:51;11.50;;;7.07;;
34497;SDS011;20744;50.938;7.286;2023-04-19T04:13:18;9.75;;;6.85;;
34497;SDS011;20744;50.938;7.286;2023-04-19T04:15:47;11.18;;;7.60;;
34497;SDS011;20744;50.938;7.286;2023-04-19T04:18:14;14.10;;;7.45;;
34497;SDS011;20744;50.938;7.286;2023-04-19T04:20:42;10.68;;;7.47;;
34497;SDS011;20744;50.938;7.286;2023-04-19T04:23:09;11.02;;;7.90;;
34497;SDS011;20744;50.938;7.286;2023-04-19T04:25:36;10.60;;;7.68;;
34497;SDS011;20744;50.938;7.286;2023-04-19T04:28:04;10.52;;;7.93;;
34497;SDS011;20744;50.938;7.286;2023-04-19T04:30:31;11.43;;;8.02;;
34497;SDS011;20744;50.938;7.286;2023-04-19T04:33:00;10.85;;;7.38;;
34497;SDS011;20744;50.938;7.286;2023-04-19T04:35:27;10.55;;;7.60;;
34497;SDS011;20744;50.938;7.286;2023-04-19T04:37:54;11.82;;;7.85;;
34497;SDS011;20744;50.938;7.286;2023-04-19T04:40:23;13.73;;;7.85;;
34497;SDS011;20744;50.938;7.286;2023-04-19T04:42:50;10.82;;;7.70;;
34497;SDS011;20744;50.938;7.286;2023-04-19T04:45:18;11.95;;;8.23;;
34497;SDS011;20744;50.938;7.286;2023-04-19T04:47:45;10.52;;;8.27;;
34497;SDS011;20744;50.938;7.286;2023-04-19T04:50:14;11.07;;;8.98;;
34497;SDS011;20744;50.938;7.286;2023-04-19T04:52:41;11.27;;;8.75;;
34497;SDS011;20744;50.938;7.286;2023-04-19T04:55:08;12.57;;;8.98;;
34497;SDS011;20744;50.938;7.286;2023-04-19T04:57:35;11.80;;;9.43;;
34497;SDS011;20744;50.938;7.286;2023-04-19T05:00:03;13.40;;;9.45;;
34497;SDS011;20744;50.938;7.286;2023-04-19T05:02:31;12.55;;;9.00;;
34497;SDS011;20744;50.938;7.286;2023-04-19T05:04:58;16.55;;;10.02;;
34497;SDS011;20744;50.938;7.286;2023-04-19T05:07:27;13.48;;;8.80;;
34497;SDS011;20744;50.938;7.286;2023-04-19T05:09:54;11.98;;;9.15;;
34497;SDS011;20744;50.938;7.286;2023-04-19T05:12:21;16.25;;;9.20;;
34497;SDS011;20744;50.938;7.286;2023-04-19T05:14:48;14.13;;;9.75;;
34497;SDS011;20744;50.938;7.286;2023-04-19T05:17:15;15.55;;;9.63;;
34497;SDS011;20744;50.938;7.286;2023-04-19T05:19:43;14.50;;;9.13;;
34497;SDS011;20744;50.938;7.286;2023-04-19T05:22:10;10.38;;;8.35;;
34497;SDS011;20744;50.938;7.286;2023-04-19T05:24:39;16.27;;;9.30;;
34497;SDS011;20744;50.938;7.286;2023-04-19T05:27:06;11.90;;;9.32;;
34497;SDS011;20744;50.938;7.286;2023-04-19T05:29:33;14.00;;;9.15;;
34497;SDS011;20744;50.938;7.286;2023-04-19T05:32:00;14.82;;;8.98;;
34497;SDS011;20744;50.938;7.286;2023-04-19T05:34:28;11.00;;;8.73;;
34497;SDS011;20744;50.938;7.286;2023-04-19T05:36:55;13.68;;;9.02;;
34497;SDS011;20744;50.938;7.286;2023-04-19T05:39:22;18.17;;;9.57;;
34497;SDS011;20744;50.938;7.286;2023-04-19T05:41:51;16.20;;;9.60;;
34497;SDS011;20744;50.938;7.286;2023-04-19T05:44:18;12.93;;;10.07;;
34497;SDS011;20744;50.938;7.286;2023-04-19T05:46:45;21.75;;;9.90;;
34497;SDS011;20744;50.938;7.286;2023-04-19T05:49:13;15.98;;;10.60;;
34497;SDS011;20744;50.938;7.286;2023-04-19T05:51:40;16.38;;;11.00;;
34497;SDS011;20744;50.938;7.286;2023-04-19T05:54:07;16.40;;;10.65;;
34497;SDS011;20744;50.938;7.286;2023-04-19T05:56:37;13.80;;;10.23;;
34497;SDS011;20744;50.938;7.286;2023-04-19T05:59:06;16.38;;;11.60;;
34497;SDS011;20744;50.938;7.286;2023-04-19T06:01:35;15.25;;;10.20;;
34497;SDS011;20744;50.938;7.286;2023-04-19T06:04:02;13.07;;;10.23;;
34497;SDS011;20744;50.938;7.286;2023-04-19T06:06:30;13.07;;;9.75;;
34497;SDS011;20744;50.938;7.286;2023-04-19T06:08:57;12.68;;;9.80;;
34497;SDS011;20744;50.938;7.286;2023-04-19T06:11:24;15.88;;;9.57;;
34497;SDS011;20744;50.938;7.286;2023-04-19T06:13:51;13.80;;;9.82;;
34497;SDS011;20744;50.938;7.286;2023-04-19T06:16:20;12.07;;;8.98;;
34497;SDS011;20744;50.938;7.286;2023-04-19T06:18:47;14.32;;;9.27;;
34497;SDS011;20744;50.938;7.286;2023-04-19T06:21:15;14.70;;;8.98;;
34497;SDS011;20744;50.938;7.286;2023-04-19T06:23:42;17.92;;;8.93;;
34497;SDS011;20744;50.938;7.286;2023-04-19T06:26:09;11.00;;;8.30;;
34497;SDS011;20744;50.938;7.286;2023-04-19T06:28:36;11.55;;;7.85;;
34497;SDS011;20744;50.938;7.286;2023-04-19T06:31:04;12.25;;;8.18;;
34497;SDS011;20744;50.938;7.286;2023-04-19T06:33:32;12.13;;;8.10;;
34497;SDS011;20744;50.938;7.286;2023-04-19T06:35:59;13.77;;;8.45;;
34497;SDS011;20744;50.938;7.286;2023-04-19T06:38:27;10.57;;;7.63;;
34497;SDS011;20744;50.938;7.286;2023-04-19T06:40:55;8.80;;;7.28;;
34497;SDS011;20744;50.938;7.286;2023-04-19T06:43:22;10.73;;;6.97;;
34497;SDS011;20744;50.938;7.286;2023-04-19T06:45:56;8.10;;;6.60;;
34497;SDS011;20744;50.938;7.286;2023-04-19T06:48:23;9.00;;;6.07;;
34497;SDS011;20744;50.938;7.286;2023-04-19T06:50:53;12.07;;;6.68;;
34497;SDS011;20744;50.938;7.286;2023-04-19T06:53:20;11.13;;;6.10;;
34497;SDS011;20744;50.938;7.286;2023-04-19T06:55:47;8.38;;;5.57;;
34497;SDS011;20744;50.938;7.286;2023-04-19T06:58:14;7.25;;;5.97;;
34497;SDS011;20744;50.938;7.286;2023-04-19T07:00:42;8.07;;;6.18;;
34497;SDS011;20744;50.938;7.286;2023-04-19T07:03:09;8.77;;;5.70;;
34497;SDS011;20744;50.938;7.286;2023-04-19T07:05:37;9.77;;;5.50;;
34497;SDS011;20744;50.938;7.286;2023-04-19T07:08:05;6.47;;;5.18;;
34497;SDS011;20744;50.938;7.286;2023-04-19T07:10:33;7.35;;;5.28;;
34497;SDS011;20744;50.938;7.286;2023-04-19T07:13:00;8.20;;;5.90;;
34497;SDS011;20744;50.938;7.286;2023-04-19T07:15:27;7.35;;;5.32;;
34497;SDS011;20744;50.938;7.286;2023-04-19T07:17:54;7.82;;;5.35;;
34497;SDS011;20744;50.938;7.286;2023-04-19T07:20:22;9.38;;;5.47;;
34497;SDS011;20744;50.938;7.286;2023-04-19T07:22:49;7.95;;;5.30;;
34497;SDS011;20744;50.938;7.286;2023-04-19T07:25:17;10.60;;;5.93;;
34497;SDS011;20744;50.938;7.286;2023-04-19T07:27:45;7.68;;;5.28;;
34497;SDS011;20744;50.938;7.286;2023-04-19T07:30:12;9.95;;;4.88;;
34497;SDS011;20744;50.938;7.286;2023-04-19T07:32:39;6.80;;;4.70;;
34497;SDS011;20744;50.938;7.286;2023-04-19T07:35:07;6.05;;;4.55;;
34497;SDS011;20744;50.938;7.286;2023-04-19T07:37:34;7.20;;;4.60;;
34497;SDS011;20744;50.938;7.286;2023-04-19T07:40:01;5.68;;;4.47;;
34497;SDS011;20744;50.938;7.286;2023-04-19T07:42:30;8.23;;;4.43;;
34497;SDS011;20744;50.938;7.286;2023-04-19T07:44:57;6.75;;;4.72;;
34497;SDS011;20744;50.938;7.286;2023-04-19T07:47:25;10.25;;;4.38;;
34497;SDS011;20744;50.938;7.286;2023-04-19T07:49:52;6.80;;;4.07;;
34497;SDS011;20744;50.938;7.286;2023-04-19T07:52:19;8.13;;;4.57;;
34497;SDS011;20744;50.938;7.286;2023-04-19T07:54:47;6.60;;;4.35;;
34497;SDS011;20744;50.938;7.286;2023-04-19T07:57:14;7.78;;;3.97;;
34497;SDS011;20744;50.938;7.286;2023-04-19T07:59:43;5.93;;;3.72;;
34497;SDS011;20744;50.938;7.286;2023-04-19T08:02:10;6.63;;;3.97;;
34497;SDS011;20744;50.938;7.286;2023-04-19T08:04:38;5.28;;;3.78;;
34497;SDS011;20744;50.938;7.286;2023-04-19T08:07:05;5.70;;;3.63;;
34497;SDS011;20744;50.938;7.286;2023-04-19T08:09:33;5.10;;;3.80;;
34497;SDS011;20744;50.938;7.286;2023-04-19T08:12:01;5.13;;;4.05;;
34497;SDS011;20744;50.938;7.286;2023-04-19T08:14:29;6.13;;;3.67;;
34497;SDS011;20744;50.938;7.286;2023-04-19T08:16:57;6.95;;;3.85;;
34497;SDS011;20744;50.938;7.286;2023-04-19T08:19:25;6.45;;;3.72;;
34497;SDS011;20744;50.938;7.286;2023-04-19T08:21:52;6.38;;;4.28;;
34497;SDS011;20744;50.938;7.286;2023-04-19T08:24:19;6.18;;;3.60;;
34497;SDS011;20744;50.938;7.286;2023-04-19T08:26:47;4.78;;;3.28;;
34497;SDS011;20744;50.938;7.286;2023-04-19T08:29:17;8.70;;;3.47;;
34497;SDS011;20744;50.938;7.286;2023-04-19T08:31:46;6.22;;;3.58;;
34497;SDS011;20744;50.938;7.286;2023-04-19T08:34:14;8.43;;;4.00;;
34497;SDS011;20744;50.938;7.286;2023-04-19T08:36:42;6.82;;;3.97;;
34497;SDS011;20744;50.938;7.286;2023-04-19T08:39:10;5.28;;;3.30;;
34497;SDS011;20744;50.938;7.286;2023-04-19T08:41:37;5.35;;;3.22;;
34497;SDS011;20744;50.938;7.286;2023-04-19T08:44:06;6.30;;;3.40;;
34497;SDS011;20744;50.938;7.286;2023-04-19T08:46:33;5.25;;;3.20;;
34497;SDS011;20744;50.938;7.286;2023-04-19T08:49:00;13.88;;;3.30;;
34497;SDS011;20744;50.938;7.286;2023-04-19T08:51:31;5.57;;;3.33;;
34497;SDS011;20744;50.938;7.286;2023-04-19T08:54:00;5.75;;;3.47;;
34497;SDS011;20744;50.938;7.286;2023-04-19T08:56:31;5.97;;;3.67;;
34497;SDS011;20744;50.938;7.286;2023-04-19T08:58:59;6.50;;;3.72;;
34497;SDS011;20744;50.938;7.286;2023-04-19T09:01:26;5.43;;;3.75;;
34497;SDS011;20744;50.938;7.286;2023-04-19T09:03:53;8.27;;;3.50;;
34497;SDS011;20744;50.938;7.286;2023-04-19T09:06:20;8.18;;;4.13;;
34497;SDS011;20744;50.938;7.286;2023-04-19T09:08:49;4.85;;;3.30;;
34497;SDS011;20744;50.938;7.286;2023-04-19T09:11:26;7.95;;;3.80;;
34497;SDS011;20744;50.938;7.286;2023-04-19T09:14:06;9.35;;;4.03;;
34497;SDS011;20744;50.938;7.286;2023-04-19T09:16:34;8.02;;;3.15;;
34497;SDS011;20744;50.938;7.286;2023-04-19T09:19:02;5.72;;;3.72;;
34497;SDS011;20744;50.938;7.286;2023-04-19T09:21:29;6.57;;;3.70;;
34497;SDS011;20744;50.938;7.286;2023-04-19T09:23:58;6.05;;;3.47;;
34497;SDS011;20744;50.938;7.286;2023-04-19T09:26:28;5.57;;;3.30;;
34497;SDS011;20744;50.938;7.286;2023-04-19T09:28:56;6.10;;;3.15;;
34497;SDS011;20744;50.938;7.286;2023-04-19T09:31:23;7.57;;;3.20;;
34497;SDS011;20744;50.938;7.286;2023-04-19T09:33:51;5.15;;;3.28;;
34497;SDS011;20744;50.938;7.286;2023-04-19T09:36:28;5.63;;;3.00;;
34497;SDS011;20744;50.938;7.286;2023-04-19T09:38:55;7.38;;;2.95;;
34497;SDS011;20744;50.938;7.286;2023-04-19T09:41:24;5.65;;;3.10;;
34497;SDS011;20744;50.938;7.286;2023-04-19T09:43:52;4.72;;;3.25;;
34497;SDS011;20744;50.938;7.286;2023-04-19T09:46:29;5.75;;;3.25;;
34497;SDS011;20744;50.938;7.286;2023-04-19T09:49:09;8.50;;;2.90;;
34497;SDS011;20744;50.938;7.286;2023-04-19T09:51:41;7.72;;;2.72;;
34497;SDS011;20744;50.938;7.286;2023-04-19T09:54:08;9.10;;;2.50;;
34497;SDS011;20744;50.938;7.286;2023-04-19T09:56:37;5.70;;;2.70;;
34497;SDS011;20744;50.938;7.286;2023-04-19T09:59:05;3.90;;;2.30;;
34497;SDS011;20744;50.938;7.286;2023-04-19T10:01:33;5.47;;;1.95;;
34497;SDS011;20744;50.938;7.286;2023-04-19T10:04:01;3.75;;;2.30;;
34497;SDS011;20744;50.938;7.286;2023-04-19T10:06:30;4.72;;;2.22;;
34497;SDS011;20744;50.938;7.286;2023-04-19T10:08:59;4.88;;;2.47;;
34497;SDS011;20744;50.938;7.286;2023-04-19T10:11:29;5.13;;;2.40;;
34497;SDS011;20744;50.938;7.286;2023-04-19T10:14:02;3.33;;;2.13;;
34497;SDS011;20744;50.938;7.286;2023-04-19T10:16:30;8.27;;;2.10;;
34497;SDS011;20744;50.938;7.286;2023-04-19T10:18:58;5.00;;;2.47;;
34497;SDS011;20744;50.938;7.286;2023-04-19T10:21:26;4.05;;;2.10;;
34497;SDS011;20744;50.938;7.286;2023-04-19T10:23:53;7.47;;;2.25;;
34497;SDS011;20744;50.938;7.286;2023-04-19T10:26:21;3.30;;;2.08;;
34497;SDS011;20744;50.938;7.286;2023-04-19T10:28:48;4.10;;;1.95;;
34497;SDS011;20744;50.938;7.286;2023-04-19T10:31:19;7.20;;;1.77;;
34497;SDS011;20744;50.938;7.286;2023-04-19T10:33:48;5.13;;;1.80;;
34497;SDS011;20744;50.938;7.286;2023-04-19T10:36:15;5.13;;;2.13;;
34497;SDS011;20744;50.938;7.286;2023-04-19T10:38:43;8.65;;;1.95;;
34497;SDS011;20744;50.938;7.286;2023-04-19T10:41:12;4.00;;;1.73;;
34497;SDS011;20744;50.938;7.286;2023-04-19T10:43:40;5.65;;;1.88;;
34497;SDS011;20744;50.938;7.286;2023-04-19T10:46:08;3.28;;;1.55;;
34497;SDS011;20744;50.938;7.286;2023-04-19T10:48:38;6.00;;;1.75;;
34497;SDS011;20744;50.938;7.286;2023-04-19T10:51:12;6.35;;;2.10;;
34497;SDS011;20744;50.938;7.286;2023-04-19T10:59:12;4.50;;;1.58;;
34497;SDS011;20744;50.938;7.286;2023-04-19T11:01:46;4.00;;;2.33;;
34497;SDS011;20744;50.938;7.286;2023-04-19T11:04:16;6.55;;;2.90;;
34497;SDS011;20744;50.938;7.286;2023-04-19T11:06:56;3.75;;;2.45;;
34497;SDS011;20744;50.938;7.286;2023-04-19T11:09:26;3.97;;;2.90;;
34497;SDS011;20744;50.938;7.286;2023-04-19T11:11:54;6.03;;;2.80;;
34497;SDS011;20744;50.938;7.286;2023-04-19T11:14:23;8.93;;;2.92;;
34497;SDS011;20744;50.938;7.286;2023-04-19T11:16:51;6.57;;;2.65;;
34497;SDS011;20744;50.938;7.286;2023-04-19T11:19:20;7.47;;;3.03;;
34497;SDS011;20744;50.938;7.286;2023-04-19T11:21:48;5.03;;;2.70;;
34497;SDS011;20744;50.938;7.286;2023-04-19T11:24:15;6.82;;;3.05;;
34497;SDS011;20744;50.938;7.286;2023-04-19T11:26:44;7.35;;;2.40;;
34497;SDS011;20744;50.938;7.286;2023-04-19T11:29:12;5.30;;;2.40;;
34497;SDS011;20744;50.938;7.286;2023-04-19T11:31:39;5.38;;;2.47;;
34497;SDS011;20744;50.938;7.286;2023-04-19T11:34:10;3.58;;;2.00;;
34497;SDS011;20744;50.938;7.286;2023-04-19T11:36:47;5.30;;;2.05;;
34497;SDS011;20744;50.938;7.286;2023-04-19T11:39:14;4.10;;;1.52;;
34497;SDS011;20744;50.938;7.286;2023-04-19T11:41:41;5.90;;;1.80;;
34497;SDS011;20744;50.938;7.286;2023-04-19T11:44:12;2.45;;;1.55;;
34497;SDS011;20744;50.938;7.286;2023-04-19T11:46:39;3.67;;;1.50;;
34497;SDS011;20744;50.938;7.286;2023-04-19T11:49:07;2.85;;;1.40;;
34497;SDS011;20744;50.938;7.286;2023-04-19T11:51:34;3.85;;;1.42;;
34497;SDS011;20744;50.938;7.286;2023-04-19T11:54:07;4.78;;;1.58;;
34497;SDS011;20744;50.938;7.286;2023-04-19T11:59:21;6.78;;;1.30;;
34497;SDS011;20744;50.938;7.286;2023-04-19T12:01:48;2.40;;;1.20;;
34497;SDS011;20744;50.938;7.286;2023-04-19T12:04:16;5.10;;;1.30;;
34497;SDS011;20744;50.938;7.286;2023-04-19T12:06:43;5.65;;;1.50;;
34497;SDS011;20744;50.938;7.286;2023-04-19T12:09:12;4.25;;;1.20;;
34497;SDS011;20744;50.938;7.286;2023-04-19T12:11:43;2.95;;;1.00;;
34497;SDS011;20744;50.938;7.286;2023-04-19T12:14:10;3.05;;;1.10;;
34497;SDS011;20744;50.938;7.286;2023-04-19T12:16:38;4.82;;;1.13;;
34497;SDS011;20744;50.938;7.286;2023-04-19T12:19:09;6.63;;;1.25;;
34497;SDS011;20744;50.938;7.286;2023-04-19T12:21:37;2.20;;;1.35;;
34497;SDS011;20744;50.938;7.286;2023-04-19T12:24:05;2.80;;;1.60;;
34497;SDS011;20744;50.938;7.286;2023-04-19T12:26:35;2.10;;;1.30;;
34497;SDS011;20744;50.938;7.286;2023-04-19T12:29:04;3.47;;;1.10;;
34497;SDS011;20744;50.938;7.286;2023-04-19T12:31:31;4.18;;;1.20;;
34497;SDS011;20744;50.938;7.286;2023-04-19T12:33:59;2.30;;;1.10;;
34497;SDS011;20744;50.938;7.286;2023-04-19T12:36:26;5.88;;;1.20;;
34497;SDS011;20744;50.938;7.286;2023-04-19T12:38:54;5.43;;;1.25;;
34497;SDS011;20744;50.938;7.286;2023-04-19T12:41:21;7.93;;;1.52;;
34497;SDS011;20744;50.938;7.286;2023-04-19T12:43:50;3.97;;;1.65;;
34497;SDS011;20744;50.938;7.286;2023-04-19T12:46:17;4.88;;;1.60;;
34497;SDS011;20744;50.938;7.286;2023-04-19T12:48:44;3.75;;;1.38;;
34497;SDS011;20744;50.938;7.286;2023-04-19T12:51:11;3.10;;;1.45;;
34497;SDS011;20744;50.938;7.286;2023-04-19T12:53:40;5.40;;;1.40;;
34497;SDS011;20744;50.938;7.286;2023-04-19T12:56:07;2.65;;;1.48;;
34497;SDS011;20744;50.938;7.286;2023-04-19T12:58:36;4.93;;;1.40;;
34497;SDS011;20744;50.938;7.286;2023-04-19T13:01:04;4.72;;;1.55;;
34497;SDS011;20744;50.938;7.286;2023-04-19T13:03:32;8.32;;;1.60;;
34497;SDS011;20744;50.938;7.286;2023-04-19T13:06:00;3.10;;;1.52;;
34497;SDS011;20744;50.938;7.286;2023-04-19T13:08:27;5.18;;;1.75;;
34497;SDS011;20744;50.938;7.286;2023-04-19T13:10:55;3.83;;;1.75;;
34497;SDS011;20744;50.938;7.286;2023-04-19T13:13:23;7.00;;;1.88;;
34497;SDS011;20744;50.938;7.286;2023-04-19T13:15:51;5.47;;;2.00;;
34497;SDS011;20744;50.938;7.286;2023-04-19T13:18:19;6.30;;;1.75;;
34497;SDS011;20744;50.938;7.286;2023-04-19T13:20:47;4.25;;;1.65;;
34497;SDS011;20744;50.938;7.286;2023-04-19T13:23:15;3.20;;;1.80;;
34497;SDS011;20744;50.938;7.286;2023-04-19T13:25:42;3.95;;;1.80;;
34497;SDS011;20744;50.938;7.286;2023-04-19T13:28:09;2.67;;;1.50;;
34497;SDS011;20744;50.938;7.286;2023-04-19T13:30:36;3.70;;;1.70;;
34497;SDS011;20744;50.938;7.286;2023-04-19T13:33:04;4.60;;;2.13;;
34497;SDS011;20744;50.938;7.286;2023-04-19T13:35:32;6.07;;;2.00;;
34497;SDS011;20744;50.938;7.286;2023-04-19T13:37:59;3.47;;;1.90;;
34497;SDS011;20744;50.938;7.286;2023-04-19T13:40:27;8.35;;;2.00;;
34497;SDS011;20744;50.938;7.286;2023-04-19T13:42:54;7.07;;;2.08;;
34497;SDS011;20744;50.938;7.286;2023-04-19T13:45:21;3.25;;;1.80;;
34497;SDS011;20744;50.938;7.286;2023-04-19T13:47:48;7.45;;;2.08;;
34497;SDS011;20744;50.938;7.286;2023-04-19T13:50:16;5.72;;;1.85;;
34497;SDS011;20744;50.938;7.286;2023-04-19T13:52:44;3.70;;;2.10;;
34497;SDS011;20744;50.938;7.286;2023-04-19T13:55:12;6.95;;;2.13;;
34497;SDS011;20744;50.938;7.286;2023-04-19T13:57:39;3.45;;;1.70;;
34497;SDS011;20744;50.938;7.286;2023-04-19T14:00:07;3.63;;;1.73;;
34497;SDS011;20744;50.938;7.286;2023-04-19T14:02:35;8.15;;;1.90;;
34497;SDS011;20744;50.938;7.286;2023-04-19T14:05:02;4.90;;;1.90;;
34497;SDS011;20744;50.938;7.286;2023-04-19T14:07:30;4.90;;;2.22;;
34497;SDS011;20744;50.938;7.286;2023-04-19T14:09:59;6.72;;;2.10;;
34497;SDS011;20744;50.938;7.286;2023-04-19T14:12:26;5.82;;;2.08;;
34497;SDS011;20744;50.938;7.286;2023-04-19T14:14:54;3.90;;;2.05;;
34497;SDS011;20744;50.938;7.286;2023-04-19T14:17:21;6.35;;;2.10;;
34497;SDS011;20744;50.938;7.286;2023-04-19T14:19:48;10.50;;;1.92;;
34497;SDS011;20744;50.938;7.286;2023-04-19T14:22:16;5.38;;;2.38;;
34497;SDS011;20744;50.938;7.286;2023-04-19T14:24:43;5.03;;;1.83;;
34497;SDS011;20744;50.938;7.286;2023-04-19T14:27:12;4.68;;;2.25;;
34497;SDS011;20744;50.938;7.286;2023-04-19T14:29:39;6.03;;;1.90;;
34497;SDS011;20744;50.938;7.286;2023-04-19T14:32:06;7.43;;;1.98;;
34497;SDS011;20744;50.938;7.286;2023-04-19T14:34:34;3.92;;;1.70;;
34497;SDS011;20744;50.938;7.286;2023-04-19T14:37:01;4.03;;;1.90;;
34497;SDS011;20744;50.938;7.286;2023-04-19T14:39:28;4.13;;;1.80;;
34497;SDS011;20744;50.938;7.286;2023-04-19T14:41:55;7.65;;;2.05;;
34497;SDS011;20744;50.938;7.286;2023-04-19T14:44:24;7.80;;;2.00;;
34497;SDS011;20744;50.938;7.286;2023-04-19T14:46:51;8.05;;;2.00;;
34497;SDS011;20744;50.938;7.286;2023-04-19T14:49:19;12.68;;;2.53;;
34497;SDS011;20744;50.938;7.286;2023-04-19T14:51:46;2.67;;;1.83;;
34497;SDS011;20744;50.938;7.286;2023-04-19T14:54:13;5.45;;;1.80;;
34497;SDS011;20744;50.938;7.286;2023-04-19T14:56:40;9.20;;;2.20;;